Time;durP1;ratioP1;P1;durP2;ratioP2;P2;SDS_P1;SDS_P2;PMS_P1;PMS_P2;Temp;Humidity;BMP_temperature;BMP_pressure;BME280_temperature;BME280_humidity;BME280_pressure;Samples;Min_cycle;Max_cycle;Signal;HPM_P1;HPM_P2
2021/05/30 00:08:42;;;;;;;4.60;2.28;;;24.20;44.80;;;;;;21001229;28;20070;-62
2021/05/30 00:18:43;;;;;;;5.90;2.80;;;24.20;45.10;;;;;;21000898;28;20053;-62
2021/05/30 00:28:45;;;;;;;4.43;2.20;;;23.90;45.80;;;;;;20999448;28;20080;-60
2021/05/30 00:38:46;;;;;;;4.83;2.40;;;23.80;45.90;;;;;;20997986;28;20053;-62
2021/05/30 00:48:49;;;;;;;5.00;2.70;;;23.70;46.40;;;;;;20997938;28;20040;-61
2021/05/30 00:58:50;;;;;;;4.18;2.60;;;23.50;46.90;;;;;;20996985;28;20120;-60
2021/05/30 01:08:51;;;;;;;3.92;2.30;;;23.40;47.30;;;;;;20995866;28;20056;-62
2021/05/30 01:18:56;;;;;;;6.10;2.60;;;23.30;47.80;;;;;;20995408;28;20063;-61
2021/05/30 01:28:57;;;;;;;4.15;2.10;;;23.10;48.20;;;;;;20995572;28;20049;-61
2021/05/30 01:38:58;;;;;;;4.00;2.17;;;23.10;48.00;;;;;;20995118;28;20421;-60
2021/05/30 01:48:59;;;;;;;4.10;2.53;;;22.90;48.30;;;;;;20995270;28;20524;-61
2021/05/30 01:59:02;;;;;;;5.38;2.47;;;22.90;48.40;;;;;;20994599;28;20412;-61
2021/05/30 02:09:04;;;;;;;3.63;2.17;;;22.80;48.60;;;;;;20994534;28;20055;-62
2021/05/30 02:19:05;;;;;;;4.38;2.35;;;22.70;48.90;;;;;;20994107;28;20049;-61
2021/05/30 02:29:08;;;;;;;4.65;2.28;;;22.60;49.20;;;;;;21008063;28;20048;-61
2021/05/30 02:39:09;;;;;;;3.60;2.30;;;22.50;49.60;;;;;;21008703;28;20071;-61
2021/05/30 02:49:10;;;;;;;3.80;2.17;;;22.40;50.20;;;;;;21008410;28;20044;-60
2021/05/30 02:59:12;;;;;;;3.42;2.20;;;22.30;51.00;;;;;;21007552;28;20048;-61
2021/05/30 03:09:13;;;;;;;4.55;2.10;;;22.10;51.90;;;;;;21005090;28;20097;-60
2021/05/30 03:19:15;;;;;;;3.45;2.10;;;21.90;52.40;;;;;;21004929;28;20075;-60
2021/05/30 03:29:16;;;;;;;4.22;2.03;;;21.80;52.80;;;;;;21004578;28;20049;-60
2021/05/30 03:39:17;;;;;;;3.58;2.15;;;21.70;53.30;;;;;;21002369;28;20465;-59
2021/05/30 03:49:18;;;;;;;3.13;2.33;;;21.60;53.60;;;;;;21003303;28;20044;-62
2021/05/30 03:59:20;;;;;;;3.85;2.10;;;21.50;54.00;;;;;;21002422;28;20094;-60
2021/05/30 04:09:21;;;;;;;4.28;2.28;;;21.40;54.10;;;;;;21001226;28;20047;-60
2021/05/30 04:19:22;;;;;;;3.90;2.78;;;21.50;54.50;;;;;;21001562;28;20436;-58
2021/05/30 04:29:23;;;;;;;4.47;2.05;;;21.30;54.80;;;;;;20999560;28;20044;-58
2021/05/30 04:39:27;;;;;;;4.05;1.90;;;21.20;55.00;;;;;;20998358;28;20087;-59
2021/05/30 04:49:28;;;;;;;3.03;2.00;;;21.20;55.30;;;;;;20998717;28;20492;-60
2021/05/30 04:59:30;;;;;;;3.88;2.08;;;21.10;55.10;;;;;;20997135;28;20451;-60
2021/05/30 05:09:32;;;;;;;3.58;1.88;;;21.10;55.60;;;;;;20997168;28;20447;-60
2021/05/30 05:19:33;;;;;;;4.03;2.05;;;20.90;55.80;;;;;;20995903;28;20044;-60
2021/05/30 05:29:37;;;;;;;3.60;2.05;;;20.90;56.10;;;;;;20995070;28;20127;-61
2021/05/30 05:39:39;;;;;;;2.70;1.80;;;20.90;56.00;;;;;;20994792;28;20064;-61
2021/05/30 05:49:40;;;;;;;3.38;1.60;;;20.90;56.00;;;;;;20994906;28;20044;-61
2021/05/30 05:59:41;;;;;;;3.05;2.03;;;20.90;56.00;;;;;;20994263;28;20049;-61
2021/05/30 06:09:43;;;;;;;2.50;1.67;;;21.20;55.30;;;;;;20993812;28;20049;-61
2021/05/30 06:19:44;;;;;;;2.85;1.50;;;21.20;54.80;;;;;;20994283;28;20059;-60
2021/05/30 06:29:45;;;;;;;3.67;2.10;;;21.40;54.40;;;;;;20993484;28;20045;-61
2021/05/30 06:39:46;;;;;;;2.78;1.88;;;21.50;53.90;;;;;;20993117;28;20060;-60
2021/05/30 06:49:48;;;;;;;5.90;2.92;;;21.80;53.10;;;;;;20992983;28;20106;-62
2021/05/30 06:59:49;;;;;;;3.90;2.08;;;22.00;52.40;;;;;;20992245;28;20452;-61
2021/05/30 07:09:50;;;;;;;4.65;1.92;;;22.10;52.30;;;;;;20995962;28;20048;-61
2021/05/30 07:19:53;;;;;;;3.63;1.95;;;22.30;51.40;;;;;;21006290;28;20401;-61
2021/05/30 07:29:55;;;;;;;2.95;1.75;;;23.10;49.40;;;;;;21005384;28;20456;-61
2021/05/30 07:39:56;;;;;;;4.47;2.17;;;23.70;48.00;;;;;;21004384;28;20053;-60
2021/05/30 07:49:57;;;;;;;5.50;2.40;;;24.30;46.60;;;;;;21004138;28;20110;-61
2021/05/30 07:59:59;;;;;;;3.25;2.13;;;24.90;45.20;;;;;;21003631;28;20052;-60
2021/05/30 08:10:00;;;;;;;5.40;2.53;;;25.40;44.30;;;;;;21004444;28;20409;-61
2021/05/30 08:20:02;;;;;;;7.33;2.40;;;25.80;42.90;;;;;;21000928;28;20401;-61
2021/05/30 08:30:06;;;;;;;5.70;2.95;;;26.10;42.50;;;;;;20999759;28;20114;-61
2021/05/30 08:40:08;;;;;;;6.22;2.28;;;26.50;41.70;;;;;;20999402;28;20083;-61
2021/05/30 08:50:10;;;;;;;7.10;3.17;;;26.70;41.70;;;;;;20998431;28;20465;-60
2021/05/30 09:00:21;;;;;;;5.50;2.40;;;27.10;40.80;;;;;;20998921;28;20052;-61
2021/05/30 09:10:24;;;;;;;5.93;2.58;;;27.50;39.90;;;;;;20997658;28;20052;-62
2021/05/30 09:20:26;;;;;;;6.43;2.53;;;27.40;39.90;;;;;;20998324;28;20056;-62
2021/05/30 09:30:36;;;;;;;;;;;27.60;39.60;;;;;;20995751;28;20106;-61
2021/05/30 09:40:44;;;;;;;7.40;2.33;;;27.70;39.20;;;;;;20993415;28;19920;-61
2021/05/30 09:51:02;;;;;;;7.28;2.95;;;27.80;39.10;;;;;;20994168;28;20151;-61
2021/05/30 10:01:04;;;;;;;6.50;2.50;;;;;;;;;;20992791;28;20045;-61
2021/05/30 10:11:07;;;;;;;7.82;2.55;;;;;;;;;;20992053;28;20045;-63
2021/05/30 10:21:10;;;;;;;5.10;3.13;;;;;;;;;;20990765;28;20045;-61
2021/05/30 10:31:22;;;;;;;5.63;2.40;;;;;;;;;;20992002;28;20049;-60
2021/05/30 10:41:26;;;;;;;9.27;3.13;;;;;;;;;;20989903;28;20059;-60
2021/05/30 10:51:42;;;;;;;56.30;50.30;;;;;;;;;;21006337;28;20504;-62
2021/05/30 11:01:44;;;;;;;13.88;2.83;;;;;;;;;;21006618;28;20048;-60
2021/05/30 11:11:47;;;;;;;8.48;2.53;;;;;;;;;;21006194;28;20397;-61
2021/05/30 11:21:49;;;;;;;8.20;2.72;;;;;;;;;;21004579;28;20413;-62
2021/05/30 11:31:51;;;;;;;9.32;3.72;;;;;;;;;;21003291;28;20427;-64
2021/05/30 11:41:57;;;;;;;6.13;2.67;;;30.00;35.50;;;;;;21004818;28;20083;-60
2021/05/30 11:52:04;;;;;;;6.82;3.00;;;29.10;36.90;;;;;;21002997;28;20048;-61
2021/05/30 12:02:05;;;;;;;7.00;2.88;;;29.20;36.50;;;;;;21003114;28;20056;-61
2021/05/30 12:12:28;;;;;;;6.25;3.00;;;29.30;36.50;;;;;;21002112;28;20072;-61
2021/05/30 12:22:31;;;;;;;5.13;2.97;;;29.30;36.10;;;;;;21001445;28;20063;-60
2021/05/30 12:32:32;;;;;;;7.63;3.00;;;29.30;36.10;;;;;;21000233;28;20052;-61
2021/05/30 12:42:34;;;;;;;9.98;3.72;;;29.60;35.70;;;;;;20997958;28;20057;-59
2021/05/30 12:53:08;;;;;;;6.05;2.97;;;29.70;35.00;;;;;;20998532;28;20048;-60
2021/05/30 13:03:10;;;;;;;8.70;3.65;;;30.50;34.00;;;;;;20906827;28;20045;-60
2021/05/30 13:13:30;;;;;;;6.03;3.60;;;30.30;34.00;;;;;;20906517;28;20060;-60
2021/05/30 13:23:32;;;;;;;11.00;4.90;;;30.50;33.70;;;;;;20906547;28;20052;-60
2021/05/30 13:33:36;;;;;;;7.85;3.58;;;;;;;;;;20937737;28;20063;-60
2021/05/30 13:43:37;;;;;;;12.48;3.45;;;;;;;;;;20995530;28;20059;-61
2021/05/30 13:53:42;;;;;;;4.45;2.70;;;32.20;28.90;;;;;;20993902;28;20061;-60
2021/05/30 14:03:45;;;;;;;5.80;3.15;;;31.80;29.20;;;;;;20994736;28;20048;-61
2021/05/30 14:13:47;;;;;;;6.00;2.55;;;31.30;29.70;;;;;;20992564;28;20131;-61
2021/05/30 14:23:48;;;;;;;9.48;3.20;;;31.60;29.40;;;;;;21005267;28;20056;-61
2021/05/30 14:33:50;;;;;;;6.30;2.58;;;31.90;28.70;;;;;;21008986;28;20405;-60
2021/05/30 14:43:52;;;;;;;9.55;3.15;;;;;;;;;;21006583;28;20049;-61
2021/05/30 14:53:53;;;;;;;6.55;3.78;;;;;;;;;;21007381;28;20052;-61
2021/05/30 15:03:55;;;;;;;8.95;3.00;;;;;;;;;;21006427;28;20057;-61
2021/05/30 15:13:57;;;;;;;5.22;2.72;;;;;;;;;;21005777;28;20052;-60
2021/05/30 15:23:59;;;;;;;6.97;2.75;;;;;;;;;;21005158;28;20543;-63
2021/05/30 15:34:01;;;;;;;6.38;2.80;;;;;;;;;;21001784;28;20067;-60
2021/05/30 15:44:03;;;;;;;5.47;2.60;;;;;;;;;;21003779;28;20055;-61
2021/05/30 15:54:11;;;;;;;5.40;2.72;;;33.10;25.50;;;;;;21002469;28;20059;-60
2021/05/30 16:04:13;;;;;;;6.30;3.10;;;32.20;26.80;;;;;;21002577;28;20119;-62
2021/05/30 16:14:14;;;;;;;7.57;2.78;;;32.10;26.90;;;;;;21000804;28;20044;-60
2021/05/30 16:24:15;;;;;;;4.22;2.65;;;32.10;26.70;;;;;;20998788;28;20044;-61
2021/05/30 16:34:17;;;;;;;5.13;2.42;;;32.00;27.30;;;;;;20998944;28;20055;-60
2021/05/30 16:44:18;;;;;;;5.43;3.10;;;32.00;27.20;;;;;;20998068;28;20044;-61
2021/05/30 16:54:20;;;;;;;10.32;3.33;;;31.90;27.30;;;;;;20997564;28;20488;-61
2021/05/30 17:04:21;;;;;;;6.45;2.97;;;31.90;27.60;;;;;;20996687;28;20412;-61
2021/05/30 17:14:24;;;;;;;6.30;3.13;;;31.80;27.90;;;;;;20996061;28;20056;-61
2021/05/30 17:24:25;;;;;;;5.35;3.05;;;31.90;27.40;;;;;;20995327;28;20109;-61
2021/05/30 17:34:26;;;;;;;6.45;2.45;;;31.60;27.80;;;;;;20995160;28;20139;-60
2021/05/30 17:44:28;;;;;;;5.10;2.88;;;31.60;28.10;;;;;;20994977;28;20040;-62
2021/05/30 17:54:29;;;;;;;7.50;3.28;;;31.50;28.20;;;;;;20992885;28;20048;-61
2021/05/30 18:04:31;;;;;;;7.70;3.38;;;31.40;28.10;;;;;;20993137;28;20055;-60
2021/05/30 18:14:33;;;;;;;6.47;3.30;;;31.20;27.80;;;;;;20992331;28;20045;-61
2021/05/30 18:24:34;;;;;;;10.48;5.07;;;31.00;27.90;;;;;;20993160;28;20091;-59
2021/05/30 18:34:36;;;;;;;5.15;2.95;;;31.00;28.30;;;;;;20992379;28;20139;-60
2021/05/30 18:44:37;;;;;;;6.55;3.22;;;30.80;28.40;;;;;;20992507;28;20464;-60
2021/05/30 18:54:38;;;;;;;7.25;3.08;;;30.60;28.60;;;;;;20991867;28;20044;-61
2021/05/30 19:04:40;;;;;;;8.63;3.83;;;;;;;;;;20994977;28;20059;-60
2021/05/30 19:14:41;;;;;;;6.43;3.38;;;31.30;28.30;;;;;;21006799;28;20049;-61
2021/05/30 19:24:44;;;;;;;10.02;3.38;;;;;;;;;;21005711;28;20044;-62
2021/05/30 19:34:46;;;;;;;7.60;3.58;;;30.90;28.80;;;;;;21004436;28;20059;-60
2021/05/30 19:44:48;;;;;;;11.07;4.65;;;;;;;;;;21004022;28;20045;-61
2021/05/30 19:54:50;;;;;;;7.45;3.92;;;;;;;;;;21003673;28;20547;-62
2021/05/30 20:04:52;;;;;;;11.82;4.32;;;;;;;;;;21002550;28;20052;-61
2021/05/30 20:14:54;;;;;;;7.80;3.75;;;30.20;29.30;;;;;;21001408;28;20052;-61
2021/05/30 20:24:56;;;;;;;10.90;3.80;;;;;;;;;;21000672;28;20071;-61
2021/05/30 20:34:57;;;;;;;9.55;4.38;;;29.80;30.30;;;;;;20999583;28;20477;-63
2021/05/30 20:44:59;;;;;;;8.18;4.38;;;29.30;30.80;;;;;;20997253;28;20063;-62
2021/05/30 20:55:00;;;;;;;7.63;4.72;;;;;;;;;;20998196;28;20067;-61
2021/05/30 21:05:03;;;;;;;7.43;4.00;;;29.20;31.20;;;;;;20997895;28;20044;-61
2021/05/30 21:15:06;;;;;;;8.13;3.55;;;;;;;;;;20996684;28;20489;-62
2021/05/30 21:25:08;;;;;;;7.85;3.40;;;;;;;;;;20996976;28;20094;-62
2021/05/30 21:35:11;;;;;;;7.10;3.65;;;27.90;39.00;;;;;;20995159;28;20049;-62
2021/05/30 21:45:13;;;;;;;7.13;3.22;;;;;;;;;;20996017;28;20378;-62
2021/05/30 21:55:14;;;;;;;5.60;3.25;;;;;;;;;;20995318;28;20056;-62
2021/05/30 22:05:17;;;;;;;6.75;3.10;;;;;;;;;;20995473;28;20099;-63
2021/05/30 22:15:23;;;;;;;4.78;3.10;;;27.20;42.10;;;;;;20994370;28;20381;-63
2021/05/30 22:25:24;;;;;;;4.93;2.92;;;;;;;;;;20993757;28;20044;-63
2021/05/30 22:35:26;;;;;;;;;;;;;;;;;;20993559;28;20063;-62
2021/05/30 22:45:27;;;;;;;6.80;3.13;;;26.30;45.60;;;;;;21005831;28;19921;-61
2021/05/30 22:55:28;;;;;;;7.43;2.93;;;26.40;45.50;;;;;;21007921;28;20489;-61
2021/05/30 23:05:30;;;;;;;5.23;2.60;;;;;;;;;;21007591;28;20048;-60
2021/05/30 23:15:32;;;;;;;;;;;;;;;;;;21007335;28;20386;-60
2021/05/30 23:25:33;;;;;;;4.22;2.90;;;25.90;47.00;;;;;;21006340;28;19927;-60
2021/05/30 23:35:35;;;;;;;5.90;3.17;;;24.90;50.20;;;;;;21005302;28;20056;-62
2021/05/30 23:45:36;;;;;;;5.27;2.50;;;24.70;50.50;;;;;;21004843;28;20289;-60
2021/05/30 23:55:37;;;;;;;6.60;3.37;;;24.60;50.70;;;;;;21001429;28;20056;-62
